sensor_id;sensor_type;location;lat;lon;timestamp;temperature;humidity
5344;DHT22;2694;48.950;8.970;2022-11-15T00:01:16;7.60;99.90
5344;DHT22;2694;48.950;8.970;2022-11-15T00:03:44;7.70;99.90
5344;DHT22;2694;48.950;8.970;2022-11-15T00:06:13;7.50;99.90
5344;DHT22;2694;48.950;8.970;2022-11-15T00:08:41;7.50;99.90
5344;DHT22;2694;48.950;8.970;2022-11-15T00:11:10;7.40;99.90
5344;DHT22;2694;48.950;8.970;2022-11-15T00:13:38;7.40;99.90
5344;DHT22;2694;48.950;8.970;2022-11-15T00:16:05;7.30;99.90
5344;DHT22;2694;48.950;8.970;2022-11-15T00:18:33;7.20;99.90
5344;DHT22;2694;48.950;8.970;2022-11-15T00:21:05;7.20;99.90
5344;DHT22;2694;48.950;8.970;2022-11-15T00:23:34;7.10;99.90
5344;DHT22;2694;48.950;8.970;2022-11-15T00:26:01;7.10;99.90
5344;DHT22;2694;48.950;8.970;2022-11-15T00:28:28;7.10;99.90
5344;DHT22;2694;48.950;8.970;2022-11-15T00:31:00;7.00;99.90
5344;DHT22;2694;48.950;8.970;2022-11-15T00:33:27;7.00;99.90
5344;DHT22;2694;48.950;8.970;2022-11-15T00:36:01;7.00;99.90
5344;DHT22;2694;48.950;8.970;2022-11-15T00:38:35;6.90;99.90
5344;DHT22;2694;48.950;8.970;2022-11-15T00:41:04;6.80;99.90
5344;DHT22;2694;48.950;8.970;2022-11-15T00:43:32;6.70;99.90
5344;DHT22;2694;48.950;8.970;2022-11-15T00:45:59;6.60;99.90
5344;DHT22;2694;48.950;8.970;2022-11-15T00:48:28;6.50;99.90
5344;DHT22;2694;48.950;8.970;2022-11-15T00:50:55;6.40;99.90
5344;DHT22;2694;48.950;8.970;2022-11-15T00:53:22;6.40;99.90
5344;DHT22;2694;48.950;8.970;2022-11-15T00:55:51;6.40;99.90
5344;DHT22;2694;48.950;8.970;2022-11-15T00:58:19;6.40;99.90
5344;DHT22;2694;48.950;8.970;2022-11-15T01:00:46;6.20;99.90
5344;DHT22;2694;48.950;8.970;2022-11-15T01:03:15;6.20;99.90
5344;DHT22;2694;48.950;8.970;2022-11-15T01:05:42;6.10;99.90
5344;DHT22;2694;48.950;8.970;2022-11-15T01:08:12;6.10;99.90
5344;DHT22;2694;48.950;8.970;2022-11-15T01:10:40;6.10;99.90
5344;DHT22;2694;48.950;8.970;2022-11-15T01:13:09;6.10;99.90
5344;DHT22;2694;48.950;8.970;2022-11-15T01:15:39;6.10;99.90
5344;DHT22;2694;48.950;8.970;2022-11-15T01:18:06;6.00;99.90
5344;DHT22;2694;48.950;8.970;2022-11-15T01:20:33;6.00;99.90
5344;DHT22;2694;48.950;8.970;2022-11-15T01:23:01;5.90;99.90
5344;DHT22;2694;48.950;8.970;2022-11-15T01:25:28;5.90;99.90
5344;DHT22;2694;48.950;8.970;2022-11-15T01:27:55;5.80;99.90
5344;DHT22;2694;48.950;8.970;2022-11-15T01:30:24;5.80;99.90
5344;DHT22;2694;48.950;8.970;2022-11-15T01:32:51;5.80;99.90
5344;DHT22;2694;48.950;8.970;2022-11-15T01:35:18;5.80;99.90
5344;DHT22;2694;48.950;8.970;2022-11-15T01:37:46;5.80;99.90
5344;DHT22;2694;48.950;8.970;2022-11-15T01:40:14;5.80;99.90
5344;DHT22;2694;48.950;8.970;2022-11-15T01:42:41;5.80;99.90
5344;DHT22;2694;48.950;8.970;2022-11-15T01:45:12;5.80;99.90
5344;DHT22;2694;48.950;8.970;2022-11-15T01:47:45;5.80;99.90
5344;DHT22;2694;48.950;8.970;2022-11-15T01:50:16;5.80;99.90
5344;DHT22;2694;48.950;8.970;2022-11-15T01:52:45;5.70;99.90
5344;DHT22;2694;48.950;8.970;2022-11-15T01:55:15;5.80;99.90
5344;DHT22;2694;48.950;8.970;2022-11-15T01:57:45;5.80;99.90
5344;DHT22;2694;48.950;8.970;2022-11-15T02:00:14;5.80;99.90
5344;DHT22;2694;48.950;8.970;2022-11-15T02:02:43;5.90;99.90
5344;DHT22;2694;48.950;8.970;2022-11-15T02:05:12;5.90;99.90
5344;DHT22;2694;48.950;8.970;2022-11-15T02:07:40;6.00;99.90
5344;DHT22;2694;48.950;8.970;2022-11-15T02:10:09;5.90;99.90
5344;DHT22;2694;48.950;8.970;2022-11-15T02:12:37;5.80;99.90
5344;DHT22;2694;48.950;8.970;2022-11-15T02:15:06;5.70;99.90
5344;DHT22;2694;48.950;8.970;2022-11-15T02:17:51;5.70;99.90
5344;DHT22;2694;48.950;8.970;2022-11-15T02:20:41;5.80;99.90
5344;DHT22;2694;48.950;8.970;2022-11-15T02:23:37;5.80;99.90
5344;DHT22;2694;48.950;8.970;2022-11-15T02:29:06;6.00;99.90
5344;DHT22;2694;48.950;8.970;2022-11-15T02:31:43;6.10;99.90
5344;DHT22;2694;48.950;8.970;2022-11-15T02:34:20;6.20;99.90
5344;DHT22;2694;48.950;8.970;2022-11-15T02:37:01;6.30;99.90
5344;DHT22;2694;48.950;8.970;2022-11-15T02:39:35;6.40;99.90
5344;DHT22;2694;48.950;8.970;2022-11-15T02:42:09;6.50;99.90
5344;DHT22;2694;48.950;8.970;2022-11-15T02:44:58;6.50;99.90
5344;DHT22;2694;48.950;8.970;2022-11-15T02:47:31;6.60;99.90
5344;DHT22;2694;48.950;8.970;2022-11-15T02:50:03;6.70;99.90
5344;DHT22;2694;48.950;8.970;2022-11-15T02:52:33;6.70;99.90
5344;DHT22;2694;48.950;8.970;2022-11-15T02:55:01;6.70;99.90
5344;DHT22;2694;48.950;8.970;2022-11-15T02:57:39;6.80;99.90
5344;DHT22;2694;48.950;8.970;2022-11-15T03:00:12;6.80;99.90
5344;DHT22;2694;48.950;8.970;2022-11-15T03:02:56;6.90;99.90
5344;DHT22;2694;48.950;8.970;2022-11-15T03:05:30;6.90;99.90
5344;DHT22;2694;48.950;8.970;2022-11-15T03:08:04;6.80;99.90
5344;DHT22;2694;48.950;8.970;2022-11-15T03:10:42;6.80;99.90
5344;DHT22;2694;48.950;8.970;2022-11-15T03:13:19;6.80;99.90
5344;DHT22;2694;48.950;8.970;2022-11-15T03:15:52;6.80;99.90
5344;DHT22;2694;48.950;8.970;2022-11-15T03:18:25;6.90;99.90
5344;DHT22;2694;48.950;8.970;2022-11-15T03:20:55;6.90;99.90
5344;DHT22;2694;48.950;8.970;2022-11-15T03:23:26;6.90;99.90
5344;DHT22;2694;48.950;8.970;2022-11-15T03:25:55;6.80;99.90
5344;DHT22;2694;48.950;8.970;2022-11-15T03:28:27;6.80;99.90
5344;DHT22;2694;48.950;8.970;2022-11-15T03:31:00;6.80;99.90
5344;DHT22;2694;48.950;8.970;2022-11-15T03:33:51;6.80;99.90
5344;DHT22;2694;48.950;8.970;2022-11-15T03:36:22;6.80;99.90
5344;DHT22;2694;48.950;8.970;2022-11-15T03:38:52;7.00;99.90
5344;DHT22;2694;48.950;8.970;2022-11-15T03:41:23;7.10;99.90
5344;DHT22;2694;48.950;8.970;2022-11-15T03:43:54;7.20;99.90
5344;DHT22;2694;48.950;8.970;2022-11-15T03:46:25;7.20;99.90
5344;DHT22;2694;48.950;8.970;2022-11-15T03:49:04;7.10;99.90
5344;DHT22;2694;48.950;8.970;2022-11-15T03:51:33;7.20;99.90
5344;DHT22;2694;48.950;8.970;2022-11-15T03:54:02;7.20;99.90
5344;DHT22;2694;48.950;8.970;2022-11-15T03:56:30;7.20;99.90
5344;DHT22;2694;48.950;8.970;2022-11-15T03:58:58;7.30;99.90
5344;DHT22;2694;48.950;8.970;2022-11-15T04:01:25;7.30;99.90
5344;DHT22;2694;48.950;8.970;2022-11-15T04:03:53;7.30;99.90
5344;DHT22;2694;48.950;8.970;2022-11-15T04:06:22;7.30;99.90
5344;DHT22;2694;48.950;8.970;2022-11-15T04:08:49;7.40;99.90
5344;DHT22;2694;48.950;8.970;2022-11-15T04:11:17;7.40;99.90
5344;DHT22;2694;48.950;8.970;2022-11-15T04:13:44;7.50;99.90
5344;DHT22;2694;48.950;8.970;2022-11-15T04:16:11;7.60;99.90
5344;DHT22;2694;48.950;8.970;2022-11-15T04:18:38;7.50;99.90
5344;DHT22;2694;48.950;8.970;2022-11-15T04:21:06;7.50;99.90
5344;DHT22;2694;48.950;8.970;2022-11-15T04:23:53;7.60;99.90
5344;DHT22;2694;48.950;8.970;2022-11-15T04:26:37;7.60;99.90
5344;DHT22;2694;48.950;8.970;2022-11-15T04:29:04;7.60;99.90
5344;DHT22;2694;48.950;8.970;2022-11-15T04:31:48;7.50;99.90
5344;DHT22;2694;48.950;8.970;2022-11-15T04:34:16;7.60;99.90
5344;DHT22;2694;48.950;8.970;2022-11-15T04:36:43;7.70;99.90
5344;DHT22;2694;48.950;8.970;2022-11-15T04:39:29;7.70;99.90
5344;DHT22;2694;48.950;8.970;2022-11-15T04:41:57;7.60;99.90
5344;DHT22;2694;48.950;8.970;2022-11-15T04:44:24;7.60;99.90
5344;DHT22;2694;48.950;8.970;2022-11-15T04:46:51;7.70;99.90
5344;DHT22;2694;48.950;8.970;2022-11-15T04:49:18;7.60;99.90
5344;DHT22;2694;48.950;8.970;2022-11-15T04:51:46;7.60;99.90
5344;DHT22;2694;48.950;8.970;2022-11-15T04:54:13;7.50;99.90
5344;DHT22;2694;48.950;8.970;2022-11-15T04:56:42;7.50;99.90
5344;DHT22;2694;48.950;8.970;2022-11-15T04:59:09;7.50;99.90
5344;DHT22;2694;48.950;8.970;2022-11-15T05:01:37;7.50;99.90
5344;DHT22;2694;48.950;8.970;2022-11-15T05:04:04;7.40;99.90
5344;DHT22;2694;48.950;8.970;2022-11-15T05:06:49;7.50;99.90
5344;DHT22;2694;48.950;8.970;2022-11-15T05:09:18;7.50;99.90
5344;DHT22;2694;48.950;8.970;2022-11-15T05:11:47;7.50;99.90
5344;DHT22;2694;48.950;8.970;2022-11-15T05:14:15;7.40;99.90
5344;DHT22;2694;48.950;8.970;2022-11-15T05:16:42;7.40;99.90
5344;DHT22;2694;48.950;8.970;2022-11-15T05:19:10;7.50;99.90
5344;DHT22;2694;48.950;8.970;2022-11-15T05:21:38;7.50;99.90
5344;DHT22;2694;48.950;8.970;2022-11-15T05:24:06;7.70;99.90
5344;DHT22;2694;48.950;8.970;2022-11-15T05:26:33;7.60;99.90
5344;DHT22;2694;48.950;8.970;2022-11-15T05:29:02;7.60;99.90
5344;DHT22;2694;48.950;8.970;2022-11-15T05:31:30;7.50;99.90
5344;DHT22;2694;48.950;8.970;2022-11-15T05:33:58;7.50;99.90
5344;DHT22;2694;48.950;8.970;2022-11-15T05:36:31;7.40;99.90
5344;DHT22;2694;48.950;8.970;2022-11-15T05:38:58;7.40;99.90
5344;DHT22;2694;48.950;8.970;2022-11-15T05:41:30;7.40;99.90
5344;DHT22;2694;48.950;8.970;2022-11-15T05:44:00;7.40;99.90
5344;DHT22;2694;48.950;8.970;2022-11-15T05:46:30;7.50;99.90
5344;DHT22;2694;48.950;8.970;2022-11-15T05:48:58;7.60;99.90
5344;DHT22;2694;48.950;8.970;2022-11-15T05:51:28;7.60;99.90
5344;DHT22;2694;48.950;8.970;2022-11-15T05:53:57;7.60;99.90
5344;DHT22;2694;48.950;8.970;2022-11-15T05:56:25;7.70;99.90
5344;DHT22;2694;48.950;8.970;2022-11-15T05:58:53;7.70;99.90
5344;DHT22;2694;48.950;8.970;2022-11-15T06:01:22;7.80;99.90
5344;DHT22;2694;48.950;8.970;2022-11-15T06:03:51;7.80;99.90
5344;DHT22;2694;48.950;8.970;2022-11-15T06:06:18;7.80;99.90
5344;DHT22;2694;48.950;8.970;2022-11-15T06:08:46;7.90;99.90
5344;DHT22;2694;48.950;8.970;2022-11-15T06:11:13;7.90;99.90
5344;DHT22;2694;48.950;8.970;2022-11-15T06:13:41;7.90;99.90
5344;DHT22;2694;48.950;8.970;2022-11-15T06:16:08;8.00;99.90
5344;DHT22;2694;48.950;8.970;2022-11-15T06:18:36;8.10;99.90
5344;DHT22;2694;48.950;8.970;2022-11-15T06:21:05;8.20;99.90
5344;DHT22;2694;48.950;8.970;2022-11-15T06:23:34;8.20;99.90
5344;DHT22;2694;48.950;8.970;2022-11-15T06:26:02;8.20;99.90
5344;DHT22;2694;48.950;8.970;2022-11-15T06:28:31;8.20;99.90
5344;DHT22;2694;48.950;8.970;2022-11-15T06:31:03;8.20;99.90
5344;DHT22;2694;48.950;8.970;2022-11-15T06:33:30;8.10;99.90
5344;DHT22;2694;48.950;8.970;2022-11-15T06:36:01;8.10;99.90
5344;DHT22;2694;48.950;8.970;2022-11-15T06:38:30;7.50;99.90
5344;DHT22;2694;48.950;8.970;2022-11-15T06:41:02;8.10;99.90
5344;DHT22;2694;48.950;8.970;2022-11-15T06:43:30;8.10;99.90
5344;DHT22;2694;48.950;8.970;2022-11-15T06:45:58;8.00;99.90
5344;DHT22;2694;48.950;8.970;2022-11-15T06:48:25;8.10;99.90
5344;DHT22;2694;48.950;8.970;2022-11-15T06:50:53;8.10;99.90
5344;DHT22;2694;48.950;8.970;2022-11-15T06:53:21;8.10;99.90
5344;DHT22;2694;48.950;8.970;2022-11-15T06:55:50;8.10;99.90
5344;DHT22;2694;48.950;8.970;2022-11-15T06:58:17;8.20;99.90
5344;DHT22;2694;48.950;8.970;2022-11-15T07:00:45;8.30;99.90
5344;DHT22;2694;48.950;8.970;2022-11-15T07:03:18;8.30;99.90
5344;DHT22;2694;48.950;8.970;2022-11-15T07:05:51;8.20;99.90
5344;DHT22;2694;48.950;8.970;2022-11-15T07:08:20;8.10;99.90
5344;DHT22;2694;48.950;8.970;2022-11-15T07:10:49;8.10;99.90
5344;DHT22;2694;48.950;8.970;2022-11-15T07:13:16;8.10;99.90
5344;DHT22;2694;48.950;8.970;2022-11-15T07:15:44;8.30;99.90
5344;DHT22;2694;48.950;8.970;2022-11-15T07:18:11;8.40;99.90
5344;DHT22;2694;48.950;8.970;2022-11-15T07:20:38;8.50;99.90
5344;DHT22;2694;48.950;8.970;2022-11-15T07:23:06;8.60;99.90
5344;DHT22;2694;48.950;8.970;2022-11-15T07:25:33;8.70;99.90
5344;DHT22;2694;48.950;8.970;2022-11-15T07:28:03;8.80;99.90
5344;DHT22;2694;48.950;8.970;2022-11-15T07:30:31;8.90;99.90
5344;DHT22;2694;48.950;8.970;2022-11-15T07:32:59;8.90;99.90
5344;DHT22;2694;48.950;8.970;2022-11-15T07:35:28;9.10;99.90
5344;DHT22;2694;48.950;8.970;2022-11-15T07:37:56;9.30;99.90
5344;DHT22;2694;48.950;8.970;2022-11-15T07:40:23;9.30;99.90
5344;DHT22;2694;48.950;8.970;2022-11-15T07:42:51;9.20;99.90
5344;DHT22;2694;48.950;8.970;2022-11-15T07:45:28;9.20;99.90
5344;DHT22;2694;48.950;8.970;2022-11-15T07:47:55;9.00;99.90
5344;DHT22;2694;48.950;8.970;2022-11-15T07:50:23;9.00;99.90
5344;DHT22;2694;48.950;8.970;2022-11-15T07:52:54;9.00;99.90
5344;DHT22;2694;48.950;8.970;2022-11-15T07:55:22;8.90;99.90
5344;DHT22;2694;48.950;8.970;2022-11-15T07:57:49;9.00;99.90
5344;DHT22;2694;48.950;8.970;2022-11-15T08:00:17;9.00;99.90
5344;DHT22;2694;48.950;8.970;2022-11-15T08:02:47;9.00;99.90
5344;DHT22;2694;48.950;8.970;2022-11-15T08:05:14;9.00;99.90
5344;DHT22;2694;48.950;8.970;2022-11-15T08:07:42;9.00;99.90
5344;DHT22;2694;48.950;8.970;2022-11-15T08:10:09;9.10;99.90
5344;DHT22;2694;48.950;8.970;2022-11-15T08:12:37;9.10;99.90
5344;DHT22;2694;48.950;8.970;2022-11-15T08:15:05;9.10;99.90
5344;DHT22;2694;48.950;8.970;2022-11-15T08:17:32;9.20;99.90
5344;DHT22;2694;48.950;8.970;2022-11-15T08:20:02;9.30;99.90
5344;DHT22;2694;48.950;8.970;2022-11-15T08:22:29;9.30;99.90
5344;DHT22;2694;48.950;8.970;2022-11-15T08:24:56;9.30;99.90
5344;DHT22;2694;48.950;8.970;2022-11-15T08:27:23;9.30;99.90
5344;DHT22;2694;48.950;8.970;2022-11-15T08:29:51;9.30;99.90
5344;DHT22;2694;48.950;8.970;2022-11-15T08:32:18;9.30;99.90
5344;DHT22;2694;48.950;8.970;2022-11-15T08:34:45;9.40;99.90
5344;DHT22;2694;48.950;8.970;2022-11-15T08:37:14;9.40;99.90
5344;DHT22;2694;48.950;8.970;2022-11-15T08:39:41;9.50;99.90
5344;DHT22;2694;48.950;8.970;2022-11-15T08:42:08;9.70;99.90
5344;DHT22;2694;48.950;8.970;2022-11-15T08:44:36;9.80;99.90
5344;DHT22;2694;48.950;8.970;2022-11-15T08:47:03;9.90;99.90
5344;DHT22;2694;48.950;8.970;2022-11-15T08:49:30;10.00;99.90
5344;DHT22;2694;48.950;8.970;2022-11-15T08:51:58;10.20;99.90
5344;DHT22;2694;48.950;8.970;2022-11-15T08:54:27;10.00;99.90
5344;DHT22;2694;48.950;8.970;2022-11-15T08:56:55;10.00;99.90
5344;DHT22;2694;48.950;8.970;2022-11-15T08:59:22;10.10;99.90
5344;DHT22;2694;48.950;8.970;2022-11-15T09:01:50;10.10;99.90
5344;DHT22;2694;48.950;8.970;2022-11-15T09:04:17;10.20;99.90
5344;DHT22;2694;48.950;8.970;2022-11-15T09:06:44;10.30;99.90
5344;DHT22;2694;48.950;8.970;2022-11-15T09:09:12;10.20;99.90
5344;DHT22;2694;48.950;8.970;2022-11-15T09:11:40;10.30;99.90
5344;DHT22;2694;48.950;8.970;2022-11-15T09:14:09;10.30;99.90
5344;DHT22;2694;48.950;8.970;2022-11-15T09:16:37;10.20;99.90
5344;DHT22;2694;48.950;8.970;2022-11-15T09:19:05;10.40;99.90
5344;DHT22;2694;48.950;8.970;2022-11-15T09:21:33;10.40;99.90
5344;DHT22;2694;48.950;8.970;2022-11-15T09:24:00;10.50;99.90
5344;DHT22;2694;48.950;8.970;2022-11-15T09:26:30;10.70;99.90
5344;DHT22;2694;48.950;8.970;2022-11-15T09:28:58;10.70;99.90
5344;DHT22;2694;48.950;8.970;2022-11-15T09:31:27;10.80;99.90
5344;DHT22;2694;48.950;8.970;2022-11-15T09:33:54;10.90;99.90
5344;DHT22;2694;48.950;8.970;2022-11-15T09:36:22;10.70;99.90
5344;DHT22;2694;48.950;8.970;2022-11-15T09:38:49;10.80;99.90
5344;DHT22;2694;48.950;8.970;2022-11-15T09:44:22;10.90;99.90
5344;DHT22;2694;48.950;8.970;2022-11-15T09:47:00;11.10;99.90
5344;DHT22;2694;48.950;8.970;2022-11-15T09:49:32;11.40;99.90
5344;DHT22;2694;48.950;8.970;2022-11-15T09:52:00;11.50;99.90
5344;DHT22;2694;48.950;8.970;2022-11-15T09:54:30;11.60;99.90
5344;DHT22;2694;48.950;8.970;2022-11-15T09:57:04;11.60;99.90
5344;DHT22;2694;48.950;8.970;2022-11-15T09:59:47;11.60;99.90
5344;DHT22;2694;48.950;8.970;2022-11-15T10:02:31;11.50;99.90
5344;DHT22;2694;48.950;8.970;2022-11-15T10:05:00;11.40;99.90
5344;DHT22;2694;48.950;8.970;2022-11-15T10:07:34;11.40;99.90
5344;DHT22;2694;48.950;8.970;2022-11-15T10:10:14;11.40;99.90
5344;DHT22;2694;48.950;8.970;2022-11-15T10:12:49;11.30;99.90
5344;DHT22;2694;48.950;8.970;2022-11-15T10:15:20;11.20;99.90
5344;DHT22;2694;48.950;8.970;2022-11-15T10:18:13;11.20;99.90
5344;DHT22;2694;48.950;8.970;2022-11-15T10:20:47;11.20;99.90
5344;DHT22;2694;48.950;8.970;2022-11-15T10:23:17;11.20;99.90
5344;DHT22;2694;48.950;8.970;2022-11-15T10:25:45;11.20;99.90
5344;DHT22;2694;48.950;8.970;2022-11-15T10:28:15;11.20;99.90
5344;DHT22;2694;48.950;8.970;2022-11-15T10:30:47;11.20;99.90
5344;DHT22;2694;48.950;8.970;2022-11-15T10:33:22;11.20;99.90
5344;DHT22;2694;48.950;8.970;2022-11-15T10:36:19;11.30;99.90
5344;DHT22;2694;48.950;8.970;2022-11-15T10:38:56;11.30;99.90
5344;DHT22;2694;48.950;8.970;2022-11-15T10:41:39;11.40;99.90
5344;DHT22;2694;48.950;8.970;2022-11-15T10:44:19;11.50;99.90
5344;DHT22;2694;48.950;8.970;2022-11-15T10:47:05;11.40;99.90
5344;DHT22;2694;48.950;8.970;2022-11-15T10:49:33;11.50;99.90
5344;DHT22;2694;48.950;8.970;2022-11-15T10:52:04;11.40;99.90
5344;DHT22;2694;48.950;8.970;2022-11-15T10:54:43;11.50;99.90
5344;DHT22;2694;48.950;8.970;2022-11-15T10:57:14;11.60;99.90
5344;DHT22;2694;48.950;8.970;2022-11-15T10:59:45;11.80;99.90
5344;DHT22;2694;48.950;8.970;2022-11-15T11:02:45;11.90;99.90
5344;DHT22;2694;48.950;8.970;2022-11-15T11:05:27;11.90;99.90
5344;DHT22;2694;48.950;8.970;2022-11-15T11:07:57;12.00;99.90
5344;DHT22;2694;48.950;8.970;2022-11-15T11:10:25;12.00;99.90
5344;DHT22;2694;48.950;8.970;2022-11-15T11:12:53;12.00;99.90
5344;DHT22;2694;48.950;8.970;2022-11-15T11:15:24;11.90;99.90
5344;DHT22;2694;48.950;8.970;2022-11-15T11:18:12;11.70;99.90
5344;DHT22;2694;48.950;8.970;2022-11-15T11:20:45;11.60;99.90
5344;DHT22;2694;48.950;8.970;2022-11-15T11:23:33;11.70;99.90
5344;DHT22;2694;48.950;8.970;2022-11-15T11:26:16;11.60;99.90
5344;DHT22;2694;48.950;8.970;2022-11-15T11:28:52;11.70;99.90
5344;DHT22;2694;48.950;8.970;2022-11-15T11:31:28;11.70;99.90
5344;DHT22;2694;48.950;8.970;2022-11-15T11:34:08;11.80;99.90
5344;DHT22;2694;48.950;8.970;2022-11-15T11:36:41;11.90;99.90
5344;DHT22;2694;48.950;8.970;2022-11-15T11:39:23;11.90;99.90
5344;DHT22;2694;48.950;8.970;2022-11-15T11:42:01;11.90;99.90
5344;DHT22;2694;48.950;8.970;2022-11-15T11:44:34;12.00;99.90
5344;DHT22;2694;48.950;8.970;2022-11-15T11:47:09;12.10;99.90
5344;DHT22;2694;48.950;8.970;2022-11-15T11:49:44;12.20;99.90
5344;DHT22;2694;48.950;8.970;2022-11-15T11:52:17;12.30;99.90
5344;DHT22;2694;48.950;8.970;2022-11-15T11:54:58;12.40;99.90
5344;DHT22;2694;48.950;8.970;2022-11-15T11:57:34;12.40;99.90
5344;DHT22;2694;48.950;8.970;2022-11-15T12:00:14;12.50;99.90
5344;DHT22;2694;48.950;8.970;2022-11-15T12:02:46;12.60;99.90
5344;DHT22;2694;48.950;8.970;2022-11-15T12:05:22;12.70;99.90
5344;DHT22;2694;48.950;8.970;2022-11-15T12:08:01;12.60;99.90
5344;DHT22;2694;48.950;8.970;2022-11-15T12:10:32;12.70;99.90
5344;DHT22;2694;48.950;8.970;2022-11-15T12:13:02;12.70;99.90
5344;DHT22;2694;48.950;8.970;2022-11-15T12:15:35;12.80;99.90
5344;DHT22;2694;48.950;8.970;2022-11-15T12:18:04;12.80;99.90
5344;DHT22;2694;48.950;8.970;2022-11-15T12:20:37;12.80;99.90
5344;DHT22;2694;48.950;8.970;2022-11-15T12:23:08;12.80;99.90
5344;DHT22;2694;48.950;8.970;2022-11-15T12:25:44;12.70;99.90
5344;DHT22;2694;48.950;8.970;2022-11-15T12:28:16;12.70;99.90
5344;DHT22;2694;48.950;8.970;2022-11-15T12:30:46;12.60;99.90
5344;DHT22;2694;48.950;8.970;2022-11-15T12:33:34;12.60;99.90
5344;DHT22;2694;48.950;8.970;2022-11-15T12:36:05;12.60;99.90
5344;DHT22;2694;48.950;8.970;2022-11-15T12:38:55;12.60;99.90
5344;DHT22;2694;48.950;8.970;2022-11-15T12:41:24;12.70;99.90
5344;DHT22;2694;48.950;8.970;2022-11-15T12:43:51;12.70;99.90
5344;DHT22;2694;48.950;8.970;2022-11-15T12:49:42;12.70;99.90
5344;DHT22;2694;48.950;8.970;2022-11-15T12:52:11;12.60;99.90
5344;DHT22;2694;48.950;8.970;2022-11-15T12:55:02;12.60;99.90
5344;DHT22;2694;48.950;8.970;2022-11-15T12:57:49;12.60;99.90
5344;DHT22;2694;48.950;8.970;2022-11-15T13:00:44;12.60;99.90
5344;DHT22;2694;48.950;8.970;2022-11-15T13:03:35;12.60;99.90
5344;DHT22;2694;48.950;8.970;2022-11-15T13:08:53;12.90;99.90
5344;DHT22;2694;48.950;8.970;2022-11-15T13:11:43;13.00;99.90
5344;DHT22;2694;48.950;8.970;2022-11-15T13:14:39;12.90;99.90
5344;DHT22;2694;48.950;8.970;2022-11-15T13:20:19;12.90;99.90
5344;DHT22;2694;48.950;8.970;2022-11-15T13:22:49;13.00;99.90
5344;DHT22;2694;48.950;8.970;2022-11-15T13:25:54;12.90;99.90
5344;DHT22;2694;48.950;8.970;2022-11-15T13:28:29;12.90;99.90
5344;DHT22;2694;48.950;8.970;2022-11-15T13:30:59;13.00;99.90
5344;DHT22;2694;48.950;8.970;2022-11-15T13:33:31;13.00;99.90
5344;DHT22;2694;48.950;8.970;2022-11-15T13:36:01;13.00;99.90
5344;DHT22;2694;48.950;8.970;2022-11-15T13:38:31;13.10;99.90
5344;DHT22;2694;48.950;8.970;2022-11-15T13:41:16;13.10;99.90
5344;DHT22;2694;48.950;8.970;2022-11-15T13:43:45;13.10;99.90
5344;DHT22;2694;48.950;8.970;2022-11-15T13:46:15;13.10;99.90
5344;DHT22;2694;48.950;8.970;2022-11-15T13:48:44;13.10;99.90
5344;DHT22;2694;48.950;8.970;2022-11-15T13:51:17;13.10;99.90
5344;DHT22;2694;48.950;8.970;2022-11-15T13:53:48;13.20;99.90
5344;DHT22;2694;48.950;8.970;2022-11-15T13:56:19;13.20;99.90
5344;DHT22;2694;48.950;8.970;2022-11-15T13:58:48;13.30;99.90
5344;DHT22;2694;48.950;8.970;2022-11-15T14:01:17;13.20;99.90
5344;DHT22;2694;48.950;8.970;2022-11-15T14:03:52;13.20;99.90
5344;DHT22;2694;48.950;8.970;2022-11-15T14:06:21;13.10;99.90
5344;DHT22;2694;48.950;8.970;2022-11-15T14:11:56;13.10;99.90
5344;DHT22;2694;48.950;8.970;2022-11-15T14:14:24;13.10;99.90
5344;DHT22;2694;48.950;8.970;2022-11-15T14:16:53;13.00;99.90
5344;DHT22;2694;48.950;8.970;2022-11-15T14:19:38;13.00;99.90
5344;DHT22;2694;48.950;8.970;2022-11-15T14:22:13;12.90;99.90
5344;DHT22;2694;48.950;8.970;2022-11-15T14:24:43;12.90;99.90
5344;DHT22;2694;48.950;8.970;2022-11-15T14:27:23;12.90;99.90
5344;DHT22;2694;48.950;8.970;2022-11-15T14:29:51;12.90;99.90
5344;DHT22;2694;48.950;8.970;2022-11-15T14:32:20;12.90;99.90
5344;DHT22;2694;48.950;8.970;2022-11-15T14:34:49;12.80;99.90
5344;DHT22;2694;48.950;8.970;2022-11-15T14:37:22;13.40;99.90
5344;DHT22;2694;48.950;8.970;2022-11-15T14:39:50;12.90;99.90
5344;DHT22;2694;48.950;8.970;2022-11-15T14:42:20;12.90;99.90
5344;DHT22;2694;48.950;8.970;2022-11-15T14:44:48;12.90;99.90
5344;DHT22;2694;48.950;8.970;2022-11-15T14:47:15;12.90;99.90
5344;DHT22;2694;48.950;8.970;2022-11-15T14:49:42;12.90;99.90
5344;DHT22;2694;48.950;8.970;2022-11-15T14:52:24;12.90;99.90
5344;DHT22;2694;48.950;8.970;2022-11-15T14:54:53;12.80;99.90
5344;DHT22;2694;48.950;8.970;2022-11-15T14:57:22;12.80;99.90
5344;DHT22;2694;48.950;8.970;2022-11-15T14:59:49;12.80;99.90
5344;DHT22;2694;48.950;8.970;2022-11-15T15:02:19;12.80;99.90
5344;DHT22;2694;48.950;8.970;2022-11-15T15:04:47;12.80;99.90
5344;DHT22;2694;48.950;8.970;2022-11-15T15:07:14;12.80;99.90
5344;DHT22;2694;48.950;8.970;2022-11-15T15:09:43;12.80;99.90
5344;DHT22;2694;48.950;8.970;2022-11-15T15:12:17;12.60;99.90
5344;DHT22;2694;48.950;8.970;2022-11-15T15:14:48;12.60;99.90
5344;DHT22;2694;48.950;8.970;2022-11-15T15:17:16;12.50;99.90
5344;DHT22;2694;48.950;8.970;2022-11-15T15:19:43;12.40;99.90
5344;DHT22;2694;48.950;8.970;2022-11-15T15:22:14;12.30;99.90
5344;DHT22;2694;48.950;8.970;2022-11-15T15:24:42;12.20;99.90
5344;DHT22;2694;48.950;8.970;2022-11-15T15:27:10;12.10;99.90
5344;DHT22;2694;48.950;8.970;2022-11-15T15:29:40;12.10;99.90
5344;DHT22;2694;48.950;8.970;2022-11-15T15:32:09;12.10;99.90
5344;DHT22;2694;48.950;8.970;2022-11-15T15:34:37;12.10;99.90
5344;DHT22;2694;48.950;8.970;2022-11-15T15:37:09;12.10;99.90
5344;DHT22;2694;48.950;8.970;2022-11-15T15:39:40;12.10;99.90
5344;DHT22;2694;48.950;8.970;2022-11-15T15:42:09;12.10;99.90
5344;DHT22;2694;48.950;8.970;2022-11-15T15:44:37;12.10;99.90
5344;DHT22;2694;48.950;8.970;2022-11-15T15:47:10;12.10;99.90
5344;DHT22;2694;48.950;8.970;2022-11-15T15:49:38;12.00;99.90
5344;DHT22;2694;48.950;8.970;2022-11-15T15:52:05;12.00;99.90
5344;DHT22;2694;48.950;8.970;2022-11-15T15:54:32;12.00;99.90
5344;DHT22;2694;48.950;8.970;2022-11-15T15:56:59;12.00;99.90
5344;DHT22;2694;48.950;8.970;2022-11-15T15:59:27;12.00;99.90
5344;DHT22;2694;48.950;8.970;2022-11-15T16:01:54;12.00;99.90
5344;DHT22;2694;48.950;8.970;2022-11-15T16:04:22;12.00;99.90
5344;DHT22;2694;48.950;8.970;2022-11-15T16:06:50;11.90;99.90
5344;DHT22;2694;48.950;8.970;2022-11-15T16:09:20;11.90;99.90
5344;DHT22;2694;48.950;8.970;2022-11-15T16:12:08;11.90;99.90
5344;DHT22;2694;48.950;8.970;2022-11-15T16:14:35;11.80;99.90
5344;DHT22;2694;48.950;8.970;2022-11-15T16:17:03;11.80;99.90
5344;DHT22;2694;48.950;8.970;2022-11-15T16:19:32;11.80;99.90
5344;DHT22;2694;48.950;8.970;2022-11-15T16:21:59;11.80;99.90
5344;DHT22;2694;48.950;8.970;2022-11-15T16:24:26;11.80;99.90
5344;DHT22;2694;48.950;8.970;2022-11-15T16:26:53;11.80;99.90
5344;DHT22;2694;48.950;8.970;2022-11-15T16:29:20;11.80;99.90
5344;DHT22;2694;48.950;8.970;2022-11-15T16:31:47;11.80;99.90
5344;DHT22;2694;48.950;8.970;2022-11-15T16:34:15;11.70;99.90
5344;DHT22;2694;48.950;8.970;2022-11-15T16:36:44;11.70;99.90
5344;DHT22;2694;48.950;8.970;2022-11-15T16:39:12;11.80;99.90
5344;DHT22;2694;48.950;8.970;2022-11-15T16:41:42;11.70;99.90
5344;DHT22;2694;48.950;8.970;2022-11-15T16:44:12;11.70;99.90
5344;DHT22;2694;48.950;8.970;2022-11-15T16:46:41;11.70;99.90
5344;DHT22;2694;48.950;8.970;2022-11-15T16:49:12;11.70;99.90
5344;DHT22;2694;48.950;8.970;2022-11-15T16:51:40;11.80;99.90
5344;DHT22;2694;48.950;8.970;2022-11-15T16:54:11;11.80;99.90